Prochaines Courses

Connexion

10Km

10 KM TRAIL CH TYRANNOS TOUR du 25/05/14 (Reelle 10,3)
Rang Dossard Nom Prénom Temps Cat Rang Cat Ecart Ecart Cat Club Vitesse Km/h Temps au Km
1 114 FLIPO quentin 00:47:01 SEM 1 00:00:00 00:00:00   13,144 04:34
2 65 QUENUT laurent 00:48:00 V1M 1 00:00:59 00:00:00   12,875 04:40
3 113 FLIPO gregoire 00:48:29 V1M 2 00:01:28 00:00:29   12,747 04:42
4 122 CUCHEVAL Yannick 00:52:30 V1M 3 00:05:29 00:04:30   11,771 05:06
5 46 PRUVOST Lucas 00:52:35 JUM 1 00:05:34 00:00:00   11,753 05:06
6 26 DAUSQUE Alain 00:52:38 V1M 4 00:05:37 00:04:38   11,742 05:07
7 125 MAYE Bruno 00:52:40 V2M 1 00:05:39 00:00:00   11,734 05:07
8 33 DEVOS Florian 00:53:20 CAM 1 00:06:19 00:00:00   11,588 05:11
9 115 FLIPO baptiste 00:53:32 SEM 2 00:06:31 00:06:31   11,544 05:12
10 112 DESMOUDT stephane 00:53:37 V2M 2 00:06:36 00:00:57   11,526 05:12
11 59 BEJOT pascal 00:54:19 V1M 5 00:07:18 00:06:19   11,378 05:16
12 69 COURQUIN Jérôme 00:55:13 SEM 3 00:08:12 00:08:12   11,192 05:22
13 49 QUÉNUT Franck 00:55:30 V1M 6 00:08:29 00:07:30   11,135 05:23
14 118 RIVIERE Olivier 00:55:47 V2M 3 00:08:46 00:03:07   11,079 05:25
15 58 DUCROCQ arnaud 00:55:56 V1M 7 00:08:55 00:07:56   11,049 05:26
16 92 WATTEZ Maxime 00:56:12 SEM 4 00:09:11 00:09:11   10,996 05:27
17 43 LASSALLE benoit 00:57:21 SEM 5 00:10:20 00:10:20   10,776 05:34
18 100 DELATTRE johann 00:57:26 SEM 6 00:10:25 00:10:25   10,760 05:35
19 117 SARRAZIN Sébastien 00:57:28 SEM 7 00:10:27 00:10:27   10,754 05:35
20 19 DELAMAERE julien 00:58:38 SEM 8 00:11:37 00:11:37   10,540 05:42
21 792 LEMAIRE maxime 00:59:04 SEM 9 00:12:03 00:12:03   10,463 05:44
22 786 SAGOT philippe 00:59:09 V1M 8 00:12:08 00:11:09   10,448 05:45
23 504 VERBEKE MARIE-LÉA Verbeke Damien 00:59:23 DUOX 1 00:12:22 00:00:00   10,407 05:46
24 126 LACHERIE Julien 00:59:35 SEM 10 00:12:34 00:12:34   10,372 05:47
25 123 DEWEVRE Dany 01:00:51 V1M 9 00:13:50 00:12:51   10,156 05:54
26 56 THIEULEUX Sophie 01:01:08 SEF 1 00:14:07 00:00:00   10,109 05:56
27 40 DELOBEL Laurent 01:01:08 V1M 10 00:14:07 00:13:08   10,109 05:56
28 106 SCIACALUGA thomas 01:01:30 SEM 11 00:14:29 00:14:29   10,049 05:58
29 76 HANQUEZ nicolas 01:01:32 CAM 2 00:14:31 00:08:12   10,043 05:58
30 27 L'HOMEL Paul 01:01:38 JUM 2 00:14:37 00:09:03   10,027 05:59
31 25 LEGAY henri 01:01:42 V2M 4 00:14:41 00:09:02   10,016 05:59
32 98 MAHIEUX JEAN-LUC 01:01:43 V2M 5 00:14:42 00:09:03   10,014 06:00
33 10 JANNKIEWICZ Stanislas 01:02:42 V2M 6 00:15:41 00:10:02   9,856 06:05
34 116 BODART vincent 01:02:55 V1M 11 00:15:54 00:14:55   9,823 06:07
35 23 PEYRACHE Anne claire 01:02:56 SEF 2 00:15:55 00:01:48   9,820 06:07
36 68 DOUILLET Antoine 01:03:03 SEM 12 00:16:02 00:16:02   9,802 06:07
37 31 RYS Antoine 01:03:18 JUM 3 00:16:17 00:10:43   9,763 06:09
38 55 VIENNE Christophe 01:03:37 V1M 12 00:16:36 00:15:37   9,714 06:11
39 21 DUMONT Jérôme 01:03:49 V1M 13 00:16:48 00:15:49   9,684 06:12
40 90 MASTAIN pierre 01:03:49 SEM 13 00:16:48 00:16:48   9,684 06:12
41 28 COLIN Kévin 01:04:13 SEM 14 00:17:12 00:17:12   9,624 06:14
42 64 BULTEL-SURY Marc-antoine 01:04:38 SEM 15 00:17:37 00:17:37   9,562 06:17
43 36 BETREMIEUX LUCAS 01:04:45 CAM 3 00:17:44 00:11:25   9,544 06:17
44 41 CHRETIEN Jean michel 01:04:48 V1M 14 00:17:47 00:16:48   9,537 06:17
45 91 BODDAERT romain 01:04:49 SEM 16 00:17:48 00:17:48   9,535 06:18
46 75 HANQUEZ jean luc 01:04:53 V1M 15 00:17:52 00:16:53   9,525 06:18
47 132 FREMEAUX YVAN 01:05:01 V1M 16 00:18:00 00:17:01   9,505 06:19
48 85 DECOËNE Benoît 01:06:35 V2M 7 00:19:34 00:13:55   9,282 06:28
49 38 LIMASÇON Sandrine 01:06:35 SEF 3 00:19:34 00:05:27   9,282 06:28
50 87 FRANCOIS Stella 01:07:17 V1F 1 00:20:16 00:00:00   9,185 06:32
51 119 GEERAERT Simon 01:07:45 SEM 17 00:20:44 00:20:44   9,122 06:35
52 101 BLANCKAERT Tony 01:07:45 V1M 17 00:20:44 00:19:45   9,122 06:35
53 66 PELCAT patrick 01:08:01 V2M 8 00:21:00 00:15:21   9,086 06:36
54 15 BOULOIS sylvain 01:09:28 V1M 18 00:22:27 00:21:28   8,896 06:45
55 133 D'HAILLICOURT HERVE 01:09:32 SEM 18 00:22:31 00:22:31   8,888 06:45
56 3 ALLOUCHERY SANDRINE 01:10:07 V1F 2 00:23:06 00:02:50   8,814 06:48
57 4 HERAULT caroline 01:10:08 V1F 3 00:23:07 00:02:51   8,812 06:49
58 80 CHAPELET Aurélien 01:11:39 SEM 19 00:24:38 00:24:38   8,625 06:57
59 34 LAPORTE FRANCK 01:12:00 SEM 20 00:24:59 00:24:59   8,583 06:59
60 13 CORDIER Thomas 01:12:50 SEM 21 00:25:49 00:25:49   8,485 07:04
61 84 DE JONG Tom 01:13:36 V1M 19 00:26:35 00:25:36   8,397 07:09
62 127 LACHERIE Remi 01:13:37 SEF 4 00:26:36 00:12:29   8,395 07:09
63 716 DANDOY celine 01:13:45 V1F 4 00:26:44 00:06:28   8,380 07:10
64 77 VASSEUR ludovic 01:14:00 SEM 22 00:26:59 00:26:59   8,351 07:11
65 67 HURTREL CLÉMENCE 01:14:05 SEF 5 00:27:04 00:12:57   8,342 07:12
66 37 GRANDSIR Anne 01:14:07 SEF 6 00:27:06 00:12:59   8,338 07:12
67 96 SAINT-MAXENT Julie 01:14:07 SEF 7 00:27:06 00:12:59   8,338 07:12
68 60 VERCRUYSSE Cédric 01:14:14 SEM 23 00:27:13 00:27:13   8,325 07:12
69 62 DELVART François 01:14:22 SEM 24 00:27:21 00:27:21   8,310 07:13
70 129 BOCHU Michel 01:14:25 V1M 20 00:27:24 00:26:25   8,305 07:13
71 42 CAZIN Rémy 01:15:35 CAM 4 00:28:34 00:22:15   8,176 07:20
72 508 BLARY LUCIE SACEPE Julien 01:15:49 DUOX 2 00:28:48 00:16:26   8,151 07:22
73 505 DELVART DELPHINE delvart philippe 01:15:51 DUOX 3 00:28:50 00:16:28   8,148 07:22
74 124 LEBRUN Caroline 01:15:55 SEF 8 00:28:54 00:14:47   8,141 07:22
75 7 DESCHILDT Bertrand 01:15:57 V1M 21 00:28:56 00:27:57   8,137 07:22
76 45 PRUVOST NATHALIE 01:15:57 V1F 5 00:28:56 00:08:40   8,137 07:22
77 47 PRUVOST Sophie 01:15:58 CAF 1 00:28:57 00:00:00   8,135 07:23
78 105 GARÉNAUX dominique 01:16:10 V3M 1 00:29:09 00:00:00   8,114 07:24
79 20 DELAMAERE paul 01:16:15 SEM 25 00:29:14 00:29:14   8,105 07:24
80 121 GINGUENE Marc 01:16:25 V1M 22 00:29:24 00:28:25   8,087 07:25
81 104 MILBLED MARC 01:16:37 SEM 26 00:29:36 00:29:36   8,066 07:26
82 57 THIEULEUX Pierre 01:16:50 SEM 27 00:29:49 00:29:49   8,043 07:28
83 2 BREBION AURORE 01:16:52 SEF 9 00:29:51 00:15:44   8,040 07:28
84 506 VANDEWAETER ESTELLE Vandewaeter Bertrand 01:17:56 DUOX 4 00:30:55 00:18:33   7,930 07:34
85 5 CROGIEZ melanie 01:17:58 SEF 10 00:30:57 00:16:50   7,926 07:34
86 39 BIDAUD Jean-Marc 01:18:01 V1M 23 00:31:00 00:30:01   7,921 07:34
87 718 DELVILLE GERALD 01:18:15 V1M 24 00:31:14 00:30:15   7,898 07:36
88 22 CRÉPIN Mickaël 01:18:16 SEM 28 00:31:15 00:31:15   7,896 07:36
89 54 DROUET Jérémy 01:18:18 SEM 29 00:31:17 00:31:17   7,893 07:36
90 102 DEBROUCKE richard 01:18:19 SEM 30 00:31:18 00:31:18   7,891 07:36
91 50 LORIDAN Ethan 01:18:24 SEM 31 00:31:23 00:31:23   7,883 07:37
92 51 LORIDAN Ludovic 01:18:24 SEM 32 00:31:23 00:31:23   7,883 07:37
93 61 DELERUE Christophe 01:18:40 V2M 9 00:31:39 00:26:00   7,856 07:38
94 52 LYPHOUT vincent 01:18:42 V2M 10 00:31:41 00:26:02   7,853 07:38
95 503 GRIJOL STEVEN LEFEBVRE Séverine 01:18:50 DUOX 5 00:31:49 00:19:27   7,839 07:39
96 95 PERSYN stéphane 01:18:52 V2M 11 00:31:51 00:26:12   7,836 07:39
97 111 MARGRAFF DENIS 01:19:00 V1M 25 00:31:59 00:31:00   7,823 07:40
98 82 MILLE Lisa 01:19:15 CAF 2 00:32:14 00:03:17   7,798 07:42
99 78 JOLY antoine 01:19:15 CAM 5 00:32:14 00:25:55   7,798 07:42
100 83 LEMBLE Rémi 01:19:16 CAM 6 00:32:15 00:25:56   7,796 07:42
101 63 JELONEK Dorothée 01:19:20 V1F 6 00:32:19 00:12:03   7,790 07:42
102 511 BAILLON MAËLE SZMALEC Geoffrey 01:19:29 DUOX 6 00:32:28 00:20:06   7,775 07:43
103 109 MALFOY Chantal 01:19:44 V1F 7 00:32:43 00:12:27   7,751 07:44
104 120 FRANCQ Sebastien 01:20:37 SEM 33 00:33:36 00:33:36   7,666 07:50
105 130 VAILLANT Patrice 01:20:46 V2M 12 00:33:45 00:28:06   7,652 07:50
106 97 LIMASÇON florence 01:20:48 SEF 11 00:33:47 00:19:40   7,649 07:51
107 17 HERMEL Thierry 01:21:02 V1M 26 00:34:01 00:33:02   7,626 07:52
108 16 EVRARD Jean-Pierre 01:21:03 V1M 27 00:34:02 00:33:03   7,625 07:52
109 88 PHILIS CARINE 01:21:04 V1F 8 00:34:03 00:13:47   7,623 07:52
110 89 MAHIEU EMMANUELLE 01:21:04 V1F 9 00:34:03 00:13:47   7,623 07:52
111 18 VERBEKE Romane 01:22:27 CAF 3 00:35:26 00:06:29   7,495 08:00
112 35 WATRÉ Babeth 01:22:29 V1F 10 00:35:28 00:15:12   7,492 08:00
113 107 TRUPIN marie cecile 01:22:29 V2F 1 00:35:28 00:00:00   7,492 08:00
114 509 LORIDAN CAROLINE LORIDAN Théo 01:24:08 DUOX 7 00:37:07 00:24:45   7,345 08:10
115 103 GAMBLIN Michaël 01:25:21 SEM 34 00:38:20 00:38:20   7,241 08:17
116 507 CABARET FRANÇOIS Cabaret Anne Sophie 01:28:08 DUOX 8 00:41:07 00:28:45   7,012 08:33
117 502 GUYOT DAVID TASSART Sabine 01:29:26 DUOX 9 00:42:25 00:30:03   6,910 08:41
118 512 LEFRANCOIS OLIVIER Douchin Sophie 01:30:23 DUOX 10 00:43:22 00:31:00   6,838 08:47
119 513 FERREIRA ALVINO VAN WAEALSCAPPEL Peggy 01:30:34 DUOX 11 00:43:33 00:31:11   6,824 08:48
120 501 BAILLON JEAN-MICHEL Baillon Betty 01:30:57 DUOX 12 00:43:56 00:31:34   6,795 08:50
121 32 SOUPE christelle 01:31:00 V1F 11 00:43:59 00:23:43   6,791 08:50
122 11 GRAVEROL DETEVE ISABELLE 01:31:51 V2F 2 00:44:50 00:09:22   6,728 08:55
123 24 DEGLIN Séverine 01:32:06 SEF 12 00:45:05 00:30:58   6,710 08:57
124 8 DELBARRE Sabrina 01:33:48 SEF 13 00:46:47 00:32:40   6,588 09:06
125 9 DEGLAVE Fabien 01:33:48 SEM 35 00:46:47 00:46:47   6,588 09:06
126 128 BELLET Ana 01:36:32 V2F 3 00:49:31 00:14:03   6,402 09:22
127 53 LOOTVOET SABRINA 01:36:33 V1F 12 00:49:32 00:29:16   6,401 09:22
128 108 ESNAULT cécile 01:38:22 V1F 13 00:51:21 00:31:05   6,283 09:33
129 93 HAMY DANY 01:38:53 V1F 14 00:51:52 00:31:36   6,250 09:36
130 94 FAUQUET ISABELLE 01:38:54 V1F 15 00:51:53 00:31:37   6,249 09:36
131 99 MAHIEUX MARYSE 01:41:43 V2F 4 00:54:42 00:19:14   6,076 09:53
132 48 BEKOUASSA Sandrine 01:49:04 V1F 16 01:02:03 00:41:47   5,666 10:35